createdAt,value
2018-04-11T00:01:43.195Z,17.37
2018-04-11T00:04:10.997Z,17.38
2018-04-11T00:06:38.548Z,17.33
2018-04-11T00:09:06.122Z,17.35
2018-04-11T00:11:33.638Z,17.33
2018-04-11T00:14:01.166Z,17.37
2018-04-11T00:16:28.675Z,17.35
2018-04-11T00:18:56.228Z,17.34
2018-04-11T00:21:23.761Z,17.33
2018-04-11T00:23:51.281Z,17.32
2018-04-11T00:26:18.854Z,17.31
2018-04-11T00:28:46.372Z,17.31
2018-04-11T00:31:13.922Z,17.17
2018-04-11T00:33:41.440Z,17.15
2018-04-11T00:36:09.289Z,17.10
2018-04-11T00:38:36.813Z,17.02
2018-04-11T00:41:04.391Z,17.00
2018-04-11T00:43:31.931Z,16.98
2018-04-11T00:45:59.493Z,16.95
2018-04-11T00:48:27.025Z,16.91
2018-04-11T00:50:54.570Z,16.79
2018-04-11T00:53:26.729Z,16.82
2018-04-11T00:55:54.278Z,16.82
2018-04-11T00:58:21.822Z,16.74
2018-04-11T01:00:49.384Z,16.71
2018-04-11T01:03:16.931Z,16.74
2018-04-11T01:05:44.851Z,16.69
2018-04-11T01:08:12.394Z,16.64
2018-04-11T01:10:39.950Z,16.65
2018-04-11T01:13:07.520Z,16.53
2018-04-11T01:15:35.058Z,16.50
2018-04-11T01:18:02.562Z,16.49
2018-04-11T01:20:30.120Z,16.42
2018-04-11T01:22:57.665Z,16.49
2018-04-11T01:25:25.240Z,16.53
2018-04-11T01:27:52.786Z,16.53
2018-04-11T01:30:20.306Z,16.54
2018-04-11T01:32:47.945Z,16.52
2018-04-11T01:35:15.466Z,16.45
2018-04-11T01:37:43.056Z,16.48
2018-04-11T01:40:10.616Z,16.38
2018-04-11T01:42:38.143Z,16.39
2018-04-11T01:45:05.699Z,16.39
2018-04-11T01:47:33.226Z,16.36
2018-04-11T01:50:00.732Z,16.34
2018-04-11T01:52:28.314Z,16.36
2018-04-11T01:54:55.905Z,16.42
2018-04-11T01:57:23.614Z,16.39
2018-04-11T01:59:51.129Z,16.38
2018-04-11T02:02:18.664Z,16.30
2018-04-11T02:04:46.201Z,16.24
2018-04-11T02:07:14.052Z,16.17
2018-04-11T02:09:41.656Z,16.15
2018-04-11T02:12:09.153Z,16.06
2018-04-11T02:14:36.678Z,16.03
2018-04-11T02:17:04.196Z,15.99
2018-04-11T02:19:31.714Z,16.02
2018-04-11T02:21:59.269Z,15.97
2018-04-11T02:24:26.778Z,15.90
2018-04-11T02:26:54.391Z,15.92
2018-04-11T02:29:21.933Z,15.88
2018-04-11T02:31:49.448Z,15.90
2018-04-11T02:34:16.998Z,15.93
2018-04-11T02:36:44.519Z,15.87
2018-04-11T02:39:12.070Z,15.90
2018-04-11T02:41:39.634Z,15.87
2018-04-11T02:44:07.147Z,15.96
2018-04-11T02:46:34.731Z,15.95
2018-04-11T02:49:02.320Z,15.87
2018-04-11T02:51:29.845Z,15.93
2018-04-11T02:53:57.374Z,15.93
2018-04-11T02:56:24.887Z,15.84
2018-04-11T02:58:52.463Z,15.74
2018-04-11T03:01:19.985Z,15.65
2018-04-11T03:03:47.839Z,15.24
2018-04-11T03:06:15.465Z,15.24
2018-04-11T03:08:42.991Z,15.15
2018-04-11T03:11:10.533Z,15.18
2018-04-11T03:13:38.071Z,15.18
2018-04-11T03:16:05.597Z,15.13
2018-04-11T03:18:33.125Z,15.18
2018-04-11T03:21:00.810Z,15.14
2018-04-11T03:23:28.396Z,15.15
2018-04-11T03:25:55.924Z,15.20
2018-04-11T03:28:23.452Z,15.20
2018-04-11T03:30:50.976Z,15.19
2018-04-11T03:33:18.497Z,15.14
2018-04-11T03:35:46.065Z,15.14
2018-04-11T03:38:13.583Z,15.15
2018-04-11T03:40:41.112Z,15.22
2018-04-11T03:43:08.636Z,15.13
2018-04-11T03:45:36.160Z,15.03
2018-04-11T03:48:03.705Z,15.03
2018-04-11T03:50:31.531Z,15.02
2018-04-11T03:52:59.119Z,14.98
2018-04-11T03:55:26.649Z,14.96
2018-04-11T03:57:54.201Z,15.07
2018-04-11T04:00:21.832Z,15.07
2018-04-11T04:02:49.370Z,15.05
2018-04-11T04:05:16.904Z,15.05
2018-04-11T04:07:44.499Z,15.04
2018-04-11T04:10:12.043Z,14.91
2018-04-11T04:12:39.841Z,14.95
2018-04-11T04:15:19.072Z,14.92
2018-04-11T04:17:58.651Z,14.87
2018-04-11T04:20:37.101Z,14.86
2018-04-11T04:23:04.930Z,14.80
2018-04-11T04:25:32.488Z,14.88
2018-04-11T04:28:00.033Z,14.88
2018-04-11T04:30:27.621Z,14.93
2018-04-11T04:32:55.265Z,14.90
2018-04-11T04:35:23.112Z,14.89
2018-04-11T04:37:50.617Z,14.88
2018-04-11T04:40:18.146Z,14.93
2018-04-11T04:42:45.725Z,14.91
2018-04-11T04:45:13.248Z,14.95
2018-04-11T04:47:40.802Z,14.79
2018-04-11T04:50:08.600Z,14.72
2018-04-11T04:52:36.149Z,14.77
2018-04-11T04:55:03.813Z,14.64
2018-04-11T04:57:31.367Z,14.74
2018-04-11T04:59:58.983Z,14.75
2018-04-11T05:02:26.511Z,14.74
2018-04-11T05:04:54.073Z,14.87
2018-04-11T05:07:21.634Z,14.96
2018-04-11T05:09:49.163Z,14.97
2018-04-11T05:12:16.721Z,14.92
2018-04-11T05:14:44.439Z,14.83
2018-04-11T05:17:11.942Z,14.88
2018-04-11T05:19:39.520Z,14.86
2018-04-11T05:22:07.041Z,14.92
2018-04-11T05:24:34.606Z,14.93
2018-04-11T05:27:02.403Z,14.99
2018-04-11T05:29:29.926Z,15.02
2018-04-11T05:31:57.539Z,14.99
2018-04-11T05:34:25.144Z,14.90
2018-04-11T05:36:52.974Z,14.88
2018-04-11T05:39:20.497Z,14.75
2018-04-11T05:41:48.105Z,14.78
2018-04-11T05:44:15.662Z,14.80
2018-04-11T05:46:43.201Z,14.70
2018-04-11T05:49:10.756Z,14.67
2018-04-11T05:51:38.321Z,14.46
2018-04-11T05:54:05.877Z,14.32
2018-04-11T05:56:33.443Z,14.29
2018-04-11T05:59:00.945Z,14.33
2018-04-11T06:01:28.504Z,14.39
2018-04-11T06:03:56.019Z,14.54
2018-04-11T06:06:23.541Z,14.73
2018-04-11T06:08:51.080Z,14.88
2018-04-11T06:11:18.903Z,15.22
2018-04-11T06:13:46.459Z,15.34
2018-04-11T06:16:14.044Z,15.69
2018-04-11T06:18:41.582Z,15.68
2018-04-11T06:21:09.899Z,15.39
2018-04-11T06:23:37.415Z,15.34
2018-04-11T06:26:04.975Z,15.33
2018-04-11T06:28:32.517Z,15.50
2018-04-11T06:31:00.377Z,15.73
2018-04-11T06:33:29.164Z,15.65
2018-04-11T06:35:56.798Z,15.45
2018-04-11T06:38:24.543Z,15.58
2018-04-11T06:40:52.916Z,15.49
2018-04-11T06:43:21.011Z,15.74
2018-04-11T06:45:48.779Z,16.02
2018-04-11T06:48:16.631Z,16.44
2018-04-11T06:50:44.395Z,16.58
2018-04-11T06:53:12.173Z,16.98
2018-04-11T06:55:39.805Z,16.86
2018-04-11T06:58:07.384Z,17.25
2018-04-11T07:00:35.243Z,17.42
2018-04-11T07:03:03.118Z,17.56
2018-04-11T07:05:30.974Z,17.72
2018-04-11T07:07:58.765Z,17.97
2018-04-11T07:10:26.298Z,17.98
2018-04-11T07:12:53.813Z,18.11
2018-04-11T07:15:21.356Z,18.48
2018-04-11T07:17:48.872Z,18.67
2018-04-11T07:20:16.393Z,18.88
2018-04-11T07:22:43.932Z,18.74
2018-04-11T07:25:11.442Z,18.64
2018-04-11T07:27:38.990Z,18.68
2018-04-11T07:30:06.553Z,18.99
2018-04-11T07:32:34.080Z,19.21
2018-04-11T07:35:01.620Z,18.61
2018-04-11T07:37:29.464Z,18.79
2018-04-11T07:39:58.478Z,18.73
2018-04-11T07:42:26.010Z,18.64
2018-04-11T07:44:53.597Z,18.91
2018-04-11T07:47:21.191Z,18.73
2018-04-11T07:49:48.715Z,18.96
2018-04-11T07:52:16.613Z,18.91
2018-04-11T07:54:44.555Z,19.29
2018-04-11T07:57:12.116Z,19.12
2018-04-11T07:59:41.888Z,19.25
2018-04-11T08:02:09.426Z,19.35
2018-04-11T08:04:37.353Z,19.76
2018-04-11T08:07:04.887Z,20.01
2018-04-11T08:09:32.443Z,20.33
2018-04-11T08:12:00.036Z,20.53
2018-04-11T08:14:27.629Z,20.69
2018-04-11T08:16:55.911Z,20.93
2018-04-11T08:19:23.454Z,21.32
2018-04-11T08:21:51.122Z,21.48
2018-04-11T08:24:18.754Z,21.50
2018-04-11T08:26:46.428Z,21.54
2018-04-11T08:29:13.973Z,21.70
2018-04-11T08:31:41.642Z,21.29
2018-04-11T08:34:09.196Z,21.03
2018-04-11T08:36:36.858Z,21.25
2018-04-11T08:39:04.737Z,22.03
2018-04-11T08:41:32.408Z,22.62
2018-04-11T08:44:00.224Z,22.26
2018-04-11T08:46:27.956Z,22.85
2018-04-11T08:48:55.582Z,22.53
2018-04-11T08:51:23.184Z,23.18
2018-04-11T08:53:50.775Z,23.43
2018-04-11T08:56:18.326Z,23.41
2018-04-11T08:58:45.850Z,23.72
2018-04-11T09:01:13.427Z,24.01
2018-04-11T09:03:40.949Z,24.19
2018-04-11T09:06:08.735Z,24.24
2018-04-11T09:08:36.297Z,24.31
2018-04-11T09:11:03.945Z,24.60
2018-04-11T09:13:31.606Z,25.07
2018-04-11T09:15:59.298Z,24.00
2018-04-11T09:18:26.870Z,23.41
2018-04-11T09:20:54.394Z,23.72
2018-04-11T09:23:22.253Z,23.98
2018-04-11T09:25:49.785Z,24.59
2018-04-11T09:28:17.373Z,24.47
2018-04-11T09:30:44.898Z,24.13
2018-04-11T09:33:12.494Z,23.42
2018-04-11T09:35:40.038Z,23.59
2018-04-11T09:38:07.587Z,24.23
2018-04-11T09:40:35.149Z,23.68
2018-04-11T09:43:02.785Z,24.12
2018-04-11T09:45:30.322Z,24.29
2018-04-11T09:47:57.896Z,24.31
2018-04-11T09:50:25.433Z,24.45
2018-04-11T09:52:53.016Z,24.70
2018-04-11T09:55:20.585Z,25.08
2018-04-11T09:57:48.121Z,23.42
2018-04-11T10:00:15.980Z,23.71
2018-04-11T10:02:43.551Z,24.20
2018-04-11T10:05:11.094Z,24.38
2018-04-11T10:07:38.617Z,24.35
2018-04-11T10:10:06.155Z,23.95
2018-04-11T10:12:33.731Z,23.66
2018-04-11T10:15:01.299Z,23.93
2018-04-11T10:17:28.889Z,24.10
2018-04-11T10:19:56.430Z,24.40
2018-04-11T10:22:23.980Z,24.43
2018-04-11T10:24:51.531Z,25.13
2018-04-11T10:27:19.297Z,25.56
2018-04-11T10:29:46.856Z,25.29
2018-04-11T10:32:14.415Z,25.96
2018-04-11T10:34:42.083Z,25.75
2018-04-11T10:37:09.737Z,26.23
2018-04-11T10:39:37.286Z,26.09
2018-04-11T10:42:04.814Z,25.85
2018-04-11T10:44:33.137Z,25.86
2018-04-11T10:47:00.708Z,25.07
2018-04-11T10:49:28.291Z,25.62
2018-04-11T10:51:55.917Z,26.05
2018-04-11T10:54:23.446Z,26.64
2018-04-11T10:56:51.053Z,26.39
2018-04-11T10:59:18.729Z,26.68
2018-04-11T11:01:46.262Z,26.55
2018-04-11T11:04:13.824Z,26.54
2018-04-11T11:06:41.408Z,26.02
2018-04-11T11:09:09.357Z,27.14
2018-04-11T11:11:36.894Z,28.27
2018-04-11T11:14:04.559Z,29.28
2018-04-11T11:16:36.923Z,27.40
2018-04-11T11:19:04.788Z,25.36
2018-04-11T11:21:32.318Z,24.19
2018-04-11T11:23:59.876Z,25.21
2018-04-11T11:26:27.469Z,25.49
2018-04-11T11:28:55.063Z,26.42
2018-04-11T11:31:22.627Z,27.74
2018-04-11T11:33:50.207Z,28.52
2018-04-11T11:36:17.773Z,28.77
2018-04-11T11:38:46.501Z,29.99
2018-04-11T11:41:14.128Z,30.83
2018-04-11T11:43:41.660Z,30.87
2018-04-11T11:46:09.303Z,30.90
2018-04-11T11:48:36.843Z,31.49
2018-04-11T11:51:04.353Z,32.08
2018-04-11T11:53:31.882Z,33.07
2018-04-11T11:55:59.418Z,34.32
2018-04-11T11:58:26.956Z,33.71
2018-04-11T12:00:54.536Z,34.91
2018-04-11T12:03:22.235Z,35.12
2018-04-11T12:05:49.832Z,33.56
2018-04-11T12:08:17.500Z,30.96
2018-04-11T12:10:45.090Z,33.16
2018-04-11T12:13:12.614Z,33.56
2018-04-11T12:15:40.154Z,34.31
2018-04-11T12:18:07.699Z,34.46
2018-04-11T12:20:35.324Z,35.88
2018-04-11T12:23:02.873Z,37.10
2018-04-11T12:25:30.442Z,35.39
2018-04-11T12:27:58.028Z,34.16
2018-04-11T12:30:25.596Z,32.15
2018-04-11T12:32:53.143Z,31.48
2018-04-11T12:35:20.738Z,34.03
2018-04-11T12:37:48.339Z,33.46
2018-04-11T12:40:16.131Z,32.53
2018-04-11T12:42:43.696Z,33.30
2018-04-11T12:45:11.493Z,34.20
2018-04-11T12:47:39.023Z,33.68
2018-04-11T12:50:06.584Z,33.80
2018-04-11T12:52:34.446Z,32.64
2018-04-11T12:55:02.319Z,31.71
2018-04-11T12:57:29.914Z,32.86
2018-04-11T12:59:57.434Z,31.70
2018-04-11T13:02:25.003Z,28.65
2018-04-11T13:04:52.554Z,29.22
2018-04-11T13:07:20.112Z,30.56
2018-04-11T13:09:47.632Z,31.79
2018-04-11T13:12:15.196Z,30.69
2018-04-11T13:14:42.755Z,29.64
2018-04-11T13:17:10.283Z,29.56
2018-04-11T13:19:38.081Z,30.06
2018-04-11T13:22:05.655Z,29.21
2018-04-11T13:24:33.403Z,28.71
2018-04-11T13:27:11.360Z,28.68
2018-04-11T13:29:39.328Z,27.09
2018-04-11T13:32:06.872Z,27.64
2018-04-11T13:34:34.462Z,28.05
2018-04-11T13:37:02.094Z,27.48
2018-04-11T13:39:29.645Z,28.10
2018-04-11T13:41:57.219Z,27.03
2018-04-11T13:44:24.771Z,27.21
2018-04-11T13:46:52.330Z,26.27
2018-04-11T13:49:19.941Z,26.11
2018-04-11T13:51:47.482Z,25.60
2018-04-11T13:54:15.009Z,25.31
2018-04-11T13:56:42.573Z,25.08
2018-04-11T13:59:10.093Z,25.24
2018-04-11T14:01:37.921Z,25.69
2018-04-11T14:04:05.623Z,25.64
2018-04-11T14:06:33.168Z,26.04
2018-04-11T14:09:00.778Z,24.47
2018-04-11T14:11:28.580Z,24.48
2018-04-11T14:13:56.533Z,24.84
2018-04-11T14:16:24.068Z,23.90
2018-04-11T14:18:51.624Z,24.36
2018-04-11T14:21:19.184Z,24.57
2018-04-11T14:23:46.986Z,23.94
2018-04-11T14:26:14.522Z,24.58
2018-04-11T14:28:42.057Z,24.03
2018-04-11T14:31:09.582Z,24.24
2018-04-11T14:33:37.131Z,24.96
2018-04-11T14:36:04.674Z,24.19
2018-04-11T14:38:32.196Z,24.61
2018-04-11T14:40:59.799Z,24.75
2018-04-11T14:43:27.564Z,23.92
2018-04-11T14:45:58.786Z,24.48
2018-04-11T14:48:26.888Z,25.26
2018-04-11T14:50:54.497Z,25.05
2018-04-11T14:53:22.675Z,24.97
2018-04-11T14:55:50.209Z,24.15
2018-04-11T14:58:17.783Z,23.64
2018-04-11T15:00:45.446Z,23.15
2018-04-11T15:03:13.098Z,23.00
2018-04-11T15:05:40.911Z,22.91
2018-04-11T15:08:08.430Z,22.77
2018-04-11T15:10:36.091Z,22.91
2018-04-11T15:13:03.632Z,23.44
2018-04-11T15:15:31.294Z,23.48
2018-04-11T15:17:59.114Z,23.48
2018-04-11T15:20:26.634Z,22.63
2018-04-11T15:22:54.227Z,22.15
2018-04-11T15:25:25.750Z,22.31
2018-04-11T15:27:53.446Z,22.17
2018-04-11T15:30:21.124Z,22.21
2018-04-11T15:32:48.677Z,21.58
2018-04-11T15:35:16.200Z,21.09
2018-04-11T15:37:43.715Z,21.05
2018-04-11T15:40:11.293Z,21.06
2018-04-11T15:42:38.869Z,20.92
2018-04-11T15:45:07.422Z,21.05
2018-04-11T15:47:35.144Z,20.76
2018-04-11T15:50:02.687Z,20.72
2018-04-11T15:52:30.237Z,20.83
2018-04-11T15:54:57.850Z,20.48
2018-04-11T15:57:27.799Z,20.54
2018-04-11T15:59:55.347Z,20.78
2018-04-11T16:02:23.342Z,20.47
2018-04-11T16:04:51.220Z,20.46
2018-04-11T16:07:18.773Z,20.46
2018-04-11T16:09:46.299Z,20.09
2018-04-11T16:12:13.926Z,20.21
2018-04-11T16:14:41.451Z,20.21
2018-04-11T16:17:09.601Z,19.92
2018-04-11T16:19:37.120Z,19.69
2018-04-11T16:22:04.645Z,19.75
2018-04-11T16:24:33.282Z,19.61
2018-04-11T16:27:01.812Z,19.66
2018-04-11T16:29:29.615Z,19.57
2018-04-11T16:31:57.168Z,19.54
2018-04-11T16:34:24.730Z,19.49
2018-04-11T16:36:52.287Z,19.37
2018-04-11T16:39:19.867Z,19.52
2018-04-11T16:41:47.410Z,19.47
2018-04-11T16:44:14.940Z,19.57
2018-04-11T16:46:42.469Z,19.55
2018-04-11T16:49:10.032Z,19.29
2018-04-11T16:51:37.609Z,19.28
2018-04-11T16:54:05.206Z,19.34
2018-04-11T16:56:32.736Z,19.11
2018-04-11T16:59:00.290Z,19.15
2018-04-11T17:01:27.849Z,19.00
2018-04-11T17:03:55.444Z,18.85
2018-04-11T17:06:23.054Z,18.60
2018-04-11T17:08:51.006Z,18.53
2018-04-11T17:11:18.583Z,18.68
2018-04-11T17:13:46.228Z,18.65
2018-04-11T17:16:14.886Z,18.76
2018-04-11T17:18:43.299Z,18.68
2018-04-11T17:21:23.207Z,18.69
2018-04-11T17:24:02.619Z,18.62
2018-04-11T17:26:42.118Z,18.42
2018-04-11T17:32:16.118Z,18.21
2018-04-11T17:34:43.680Z,18.10
2018-04-11T17:37:11.207Z,18.09
2018-04-11T17:39:38.728Z,17.99
2018-04-11T17:42:06.256Z,17.84
2018-04-11T17:44:33.844Z,17.69
2018-04-11T17:47:01.395Z,17.70
2018-04-11T17:49:28.915Z,17.66
2018-04-11T17:51:56.492Z,17.46
2018-04-11T17:54:24.074Z,17.35
2018-04-11T17:56:51.657Z,17.30
2018-04-11T17:59:19.222Z,17.31
2018-04-11T18:01:46.762Z,17.31
2018-04-11T18:04:14.330Z,17.35
2018-04-11T18:06:41.990Z,17.35
2018-04-11T18:09:09.565Z,17.36
2018-04-11T18:11:37.143Z,17.24
2018-04-11T18:14:04.835Z,17.18
2018-04-11T18:16:32.405Z,17.03
2018-04-11T18:18:59.959Z,17.12
2018-04-11T18:21:27.516Z,17.05
2018-04-11T18:23:55.507Z,17.02
2018-04-11T18:26:23.069Z,17.03
2018-04-11T18:28:50.610Z,17.03
2018-04-11T18:31:18.171Z,16.93
2018-04-11T18:33:45.797Z,16.94
2018-04-11T18:36:13.516Z,16.98
2018-04-11T18:38:41.069Z,16.79
2018-04-11T18:41:08.686Z,16.80
2018-04-11T18:43:36.918Z,16.80
2018-04-11T18:46:04.464Z,16.93
2018-04-11T18:48:32.243Z,17.03
2018-04-11T18:50:59.786Z,17.03
2018-04-11T18:53:27.437Z,17.01
2018-04-11T18:55:54.954Z,16.78
2018-04-11T18:58:22.540Z,16.88
2018-04-11T19:00:50.114Z,16.94
2018-04-11T19:03:17.646Z,16.71
2018-04-11T19:05:45.207Z,16.86
2018-04-11T19:08:12.790Z,16.88
2018-04-11T19:10:40.398Z,16.89
2018-04-11T19:13:08.006Z,16.89
2018-04-11T19:15:35.619Z,16.92
2018-04-11T19:18:03.182Z,16.93
2018-04-11T19:20:30.746Z,16.78
2018-04-11T19:22:59.648Z,16.74
2018-04-11T19:25:27.184Z,16.76
2018-04-11T19:27:54.763Z,16.83
2018-04-11T19:30:22.330Z,16.86
2018-04-11T19:32:49.861Z,16.84
2018-04-11T19:35:17.405Z,16.73
2018-04-11T19:37:44.954Z,16.81
2018-04-11T19:40:12.601Z,16.76
2018-04-11T19:42:40.168Z,16.80
2018-04-11T19:45:08.183Z,16.81
2018-04-11T19:47:35.768Z,16.82
2018-04-11T19:50:03.435Z,16.84
2018-04-11T19:52:30.999Z,16.80
2018-04-11T19:54:58.581Z,16.71
2018-04-11T19:57:26.250Z,16.73
2018-04-11T19:59:54.063Z,16.75
2018-04-11T20:02:21.711Z,16.78
2018-04-11T20:04:49.260Z,16.76
2018-04-11T20:07:16.911Z,16.78
2018-04-11T20:09:44.519Z,16.70
2018-04-11T20:12:12.084Z,16.68
2018-04-11T20:14:39.731Z,16.65
2018-04-11T20:17:07.345Z,16.61
2018-04-11T20:19:35.015Z,16.66
2018-04-11T20:22:02.585Z,16.62
2018-04-11T20:24:30.387Z,16.66
2018-04-11T20:26:57.985Z,16.67
2018-04-11T20:29:25.560Z,16.52
2018-04-11T20:31:53.929Z,16.53
2018-04-11T20:34:21.604Z,16.54
2018-04-11T20:36:49.523Z,16.56
2018-04-11T20:39:18.174Z,16.52
2018-04-11T20:41:45.696Z,16.54
2018-04-11T20:44:13.230Z,16.54
2018-04-11T20:46:40.822Z,16.52
2018-04-11T20:49:08.419Z,16.61
2018-04-11T20:51:36.079Z,16.55
2018-04-11T20:54:03.704Z,16.58
2018-04-11T20:56:31.385Z,16.63
2018-04-11T20:58:58.971Z,16.61
2018-04-11T21:01:27.428Z,16.52
2018-04-11T21:03:55.004Z,16.49
2018-04-11T21:06:22.688Z,16.48
2018-04-11T21:08:50.910Z,16.49
2018-04-11T21:11:18.507Z,16.47
2018-04-11T21:13:46.033Z,16.36
2018-04-11T21:16:13.608Z,16.41
2018-04-11T21:18:41.199Z,16.42
2018-04-11T21:21:08.712Z,16.39
2018-04-11T21:23:36.338Z,16.42
2018-04-11T21:26:03.933Z,16.38
2018-04-11T21:28:31.519Z,16.40
2018-04-11T21:30:59.078Z,16.36
2018-04-11T21:33:26.717Z,16.37
2018-04-11T21:35:54.312Z,16.40
2018-04-11T21:38:21.839Z,16.31
2018-04-11T21:43:16.212Z,16.30
2018-04-11T21:45:43.760Z,16.25
2018-04-11T21:48:11.300Z,16.26
2018-04-11T21:50:38.807Z,16.30
2018-04-11T21:53:06.426Z,16.23
2018-04-11T21:55:34.106Z,16.20
2018-04-11T21:58:01.624Z,16.23
2018-04-11T22:00:29.230Z,16.22
2018-04-11T22:02:56.810Z,16.24
2018-04-11T22:05:24.969Z,16.20
2018-04-11T22:07:52.512Z,16.24
2018-04-11T22:10:20.042Z,16.22
2018-04-11T22:12:47.632Z,16.06
2018-04-11T22:15:15.214Z,16.10
2018-04-11T22:17:42.789Z,16.06
2018-04-11T22:20:10.359Z,16.07
2018-04-11T22:22:37.873Z,16.08
2018-04-11T22:25:05.782Z,16.04
2018-04-11T22:27:33.327Z,16.03
2018-04-11T22:30:00.891Z,15.91
2018-04-11T22:32:28.590Z,15.88
2018-04-11T22:34:56.968Z,15.80
2018-04-11T22:37:24.572Z,15.72
2018-04-11T22:39:52.136Z,15.74
2018-04-11T22:42:19.726Z,15.68
2018-04-11T22:44:47.266Z,15.69
2018-04-11T22:47:14.783Z,15.64
2018-04-11T22:49:42.357Z,15.63
2018-04-11T22:52:09.892Z,15.71
2018-04-11T22:54:37.456Z,15.63
2018-04-11T22:57:05.619Z,15.65
2018-04-11T22:59:33.167Z,15.62
2018-04-11T23:02:00.812Z,15.64
2018-04-11T23:04:28.341Z,15.60
2018-04-11T23:06:58.082Z,15.52
2018-04-11T23:09:25.634Z,15.44
2018-04-11T23:11:53.161Z,15.45
2018-04-11T23:14:20.854Z,15.31
2018-04-11T23:16:48.370Z,15.38
2018-04-11T23:19:16.204Z,15.38
2018-04-11T23:21:44.071Z,15.32
2018-04-11T23:24:11.623Z,15.37
2018-04-11T23:26:39.167Z,15.27
2018-04-11T23:29:06.697Z,15.30
2018-04-11T23:31:34.251Z,15.27
2018-04-11T23:34:02.066Z,15.33
2018-04-11T23:36:29.851Z,15.34
2018-04-11T23:38:57.409Z,15.14
2018-04-11T23:41:24.996Z,15.17
2018-04-11T23:43:52.536Z,15.15
2018-04-11T23:46:20.059Z,15.13
2018-04-11T23:48:47.626Z,15.12
2018-04-11T23:51:15.174Z,15.11
2018-04-11T23:53:42.698Z,15.17
2018-04-11T23:56:10.268Z,15.13
2018-04-11T23:58:37.864Z,15.04
